createdAt,value
2019-02-26T00:00:56.412Z,25.76
2019-02-26T00:02:07.799Z,25.67
2019-02-26T00:03:28.189Z,25.96
2019-02-26T00:04:40.266Z,25.86
2019-02-26T00:05:56.349Z,25.86
2019-02-26T00:07:08.720Z,25.86
2019-02-26T00:08:35.759Z,25.76
2019-02-26T00:09:44.897Z,25.86
2019-02-26T00:11:01.643Z,26.15
2019-02-26T00:12:15.907Z,25.86
2019-02-26T00:13:36.552Z,25.86
2019-02-26T00:14:49.983Z,25.76
2019-02-26T00:16:10.433Z,25.96
2019-02-26T00:17:25.520Z,25.86
2019-02-26T00:18:38.958Z,25.76
2019-02-26T00:19:50.187Z,25.86
2019-02-26T00:21:03.327Z,25.96
2019-02-26T00:22:18.216Z,25.57
2019-02-26T00:23:30.356Z,25.86
2019-02-26T00:24:44.232Z,25.57
2019-02-26T00:25:54.443Z,25.96
2019-02-26T00:27:07.542Z,25.67
2019-02-26T00:28:21.625Z,25.57
2019-02-26T00:29:34.019Z,25.85
2019-02-26T00:30:44.968Z,25.66
2019-02-26T00:31:57.734Z,25.76
2019-02-26T00:33:07.802Z,25.56
2019-02-26T00:34:20.716Z,25.66
2019-02-26T00:35:30.321Z,25.66
2019-02-26T00:36:40.399Z,25.66
2019-02-26T00:37:53.785Z,25.66
2019-02-26T00:39:07.430Z,25.75
2019-02-26T00:40:20.299Z,25.67
2019-02-26T00:41:33.919Z,25.75
2019-02-26T00:42:50.173Z,25.57
2019-02-26T00:44:09.242Z,25.56
2019-02-26T00:45:22.190Z,25.66
2019-02-26T00:46:42.078Z,25.66
2019-02-26T00:47:51.709Z,25.75
2019-02-26T00:49:05.897Z,25.56
2019-02-26T00:50:18.780Z,25.56
2019-02-26T00:51:30.815Z,25.66
2019-02-26T00:52:42.223Z,25.66
2019-02-26T00:53:55.589Z,25.75
2019-02-26T00:55:11.547Z,25.66
2019-02-26T00:56:22.757Z,25.56
2019-02-26T00:57:44.875Z,25.56
2019-02-26T00:58:54.268Z,25.46
2019-02-26T01:00:07.572Z,25.46
2019-02-26T01:01:23.724Z,25.46
2019-02-26T01:02:33.194Z,25.46
2019-02-26T01:03:46.963Z,25.46
2019-02-26T01:04:58.819Z,25.46
2019-02-26T01:06:11.591Z,25.46
2019-02-26T01:07:23.839Z,25.46
2019-02-26T01:08:40.166Z,25.46
2019-02-26T01:09:56.969Z,25.46
2019-02-26T01:11:10.508Z,25.46
2019-02-26T01:12:21.974Z,25.46
2019-02-26T01:13:34.444Z,25.46
2019-02-26T01:14:48.089Z,25.46
2019-02-26T01:15:58.167Z,25.46
2019-02-26T01:17:08.194Z,25.46
2019-02-26T01:18:27.155Z,25.56
2019-02-26T01:19:42.891Z,25.46
2019-02-26T01:20:57.096Z,25.56
2019-02-26T01:22:09.421Z,25.46
2019-02-26T01:23:24.233Z,25.66
2019-02-26T01:24:36.351Z,25.66
2019-02-26T01:25:45.694Z,25.46
2019-02-26T01:26:59.177Z,25.66
2019-02-26T01:28:09.006Z,25.66
2019-02-26T01:29:30.624Z,25.46
2019-02-26T01:30:41.089Z,25.56
2019-02-26T01:31:54.074Z,25.66
2019-02-26T01:33:09.661Z,25.46
2019-02-26T01:34:22.329Z,25.46
2019-02-26T01:35:35.371Z,25.56
2019-02-26T01:36:49.411Z,25.46
2019-02-26T01:38:02.460Z,25.66
2019-02-26T01:39:16.255Z,25.46
2019-02-26T01:40:30.791Z,25.56
2019-02-26T01:41:50.364Z,25.66
2019-02-26T01:43:05.885Z,25.66
2019-02-26T01:44:14.981Z,25.56
2019-02-26T01:45:29.715Z,25.56
2019-02-26T01:46:43.152Z,25.66
2019-02-26T01:47:55.070Z,25.66
2019-02-26T01:49:06.935Z,25.56
2019-02-26T01:50:18.670Z,25.56
2019-02-26T01:51:30.586Z,25.66
2019-02-26T01:52:39.978Z,25.66
2019-02-26T01:53:53.574Z,25.66
2019-02-26T01:55:05.288Z,25.55
2019-02-26T01:56:15.019Z,25.55
2019-02-26T01:57:30.116Z,25.55
2019-02-26T01:58:40.020Z,25.55
2019-02-26T01:59:59.217Z,25.45
2019-02-26T02:01:14.195Z,25.45
2019-02-26T02:02:32.633Z,25.46
2019-02-26T02:03:43.985Z,25.55
2019-02-26T02:05:02.837Z,25.45
2019-02-26T02:06:18.272Z,25.55
2019-02-26T02:07:30.626Z,25.55
2019-02-26T02:08:45.775Z,25.64
2019-02-26T02:10:03.550Z,25.64
2019-02-26T02:11:13.590Z,25.64
2019-02-26T02:12:31.903Z,25.45
2019-02-26T02:13:46.570Z,25.55
2019-02-26T02:14:55.979Z,25.45
2019-02-26T02:16:08.981Z,25.45
2019-02-26T02:17:18.234Z,25.35
2019-02-26T02:18:30.077Z,25.64
2019-02-26T02:19:39.367Z,25.64
2019-02-26T02:20:48.980Z,25.56
2019-02-26T02:22:00.232Z,25.64
2019-02-26T02:23:09.373Z,25.55
2019-02-26T02:24:22.699Z,25.55
2019-02-26T02:25:38.612Z,25.64
2019-02-26T02:26:55.461Z,25.55
2019-02-26T02:28:08.077Z,25.64
2019-02-26T02:29:28.102Z,25.64
2019-02-26T02:30:41.393Z,25.55
2019-02-26T02:31:52.229Z,25.45
2019-02-26T02:33:10.836Z,25.55
2019-02-26T02:34:39.827Z,25.64
2019-02-26T02:35:50.692Z,25.45
2019-02-26T02:37:00.077Z,25.55
2019-02-26T02:38:09.186Z,25.45
2019-02-26T02:39:26.437Z,25.64
2019-02-26T02:40:37.998Z,25.64
2019-02-26T02:41:57.656Z,25.55
2019-02-26T02:43:13.069Z,25.64
2019-02-26T02:44:28.712Z,25.35
2019-02-26T02:45:37.695Z,25.64
2019-02-26T02:46:48.883Z,25.64
2019-02-26T02:48:04.070Z,25.64
2019-02-26T02:49:20.478Z,25.55
2019-02-26T02:50:30.139Z,25.45
2019-02-26T02:51:42.031Z,25.64
2019-02-26T02:52:56.009Z,25.45
2019-02-26T02:54:11.890Z,25.45
2019-02-26T02:55:26.785Z,25.55
2019-02-26T02:56:42.189Z,25.64
2019-02-26T02:57:58.318Z,25.64
2019-02-26T02:59:13.895Z,25.64
2019-02-26T03:00:29.133Z,25.55
2019-02-26T03:01:43.005Z,25.64
2019-02-26T03:03:02.059Z,25.64
2019-02-26T03:04:14.691Z,25.55
2019-02-26T03:05:37.952Z,25.45
2019-02-26T03:06:56.048Z,25.64
2019-02-26T03:08:13.808Z,25.55
2019-02-26T03:09:31.091Z,25.55
2019-02-26T03:10:48.667Z,25.64
2019-02-26T03:11:58.342Z,25.64
2019-02-26T03:13:07.723Z,25.64
2019-02-26T03:14:23.548Z,25.64
2019-02-26T03:15:41.517Z,25.64
2019-02-26T03:16:58.887Z,25.64
2019-02-26T03:18:16.859Z,25.64
2019-02-26T03:19:25.808Z,25.63
2019-02-26T03:20:43.985Z,25.55
2019-02-26T03:21:57.067Z,25.64
2019-02-26T03:23:12.222Z,25.64
2019-02-26T03:24:33.238Z,25.55
2019-02-26T03:25:47.291Z,25.45
2019-02-26T03:27:02.342Z,25.26
2019-02-26T03:28:11.631Z,25.35
2019-02-26T03:29:20.974Z,25.54
2019-02-26T03:30:44.107Z,25.64
2019-02-26T03:31:57.643Z,25.55
2019-02-26T03:33:07.372Z,25.64
2019-02-26T03:34:25.231Z,25.64
2019-02-26T03:35:35.247Z,25.64
2019-02-26T03:36:47.791Z,25.64
2019-02-26T03:38:01.411Z,25.55
2019-02-26T03:39:13.548Z,25.64
2019-02-26T03:40:27.002Z,25.64
2019-02-26T03:41:42.852Z,25.64
2019-02-26T03:42:59.092Z,25.55
2019-02-26T03:44:15.751Z,25.55
2019-02-26T03:45:27.424Z,25.54
2019-02-26T03:46:36.748Z,25.64
2019-02-26T03:47:46.083Z,25.64
2019-02-26T03:49:02.296Z,25.55
2019-02-26T03:50:12.104Z,25.64
2019-02-26T03:51:21.426Z,25.64
2019-02-26T03:52:33.966Z,25.64
2019-02-26T03:53:46.099Z,25.45
2019-02-26T03:54:55.140Z,25.55
2019-02-26T03:56:15.335Z,25.54
2019-02-26T03:57:27.547Z,25.64
2019-02-26T03:58:36.835Z,25.54
2019-02-26T03:59:45.917Z,25.55
2019-02-26T04:00:55.932Z,25.45
2019-02-26T04:02:20.767Z,25.63
2019-02-26T04:03:37.507Z,25.64
2019-02-26T04:04:56.548Z,25.54
2019-02-26T04:06:14.667Z,25.55
2019-02-26T04:07:28.274Z,25.44
2019-02-26T04:08:42.204Z,25.45
2019-02-26T04:10:01.056Z,25.44
2019-02-26T04:11:10.964Z,25.63
2019-02-26T04:12:27.454Z,25.54
2019-02-26T04:13:49.295Z,25.63
2019-02-26T04:15:04.124Z,25.54
2019-02-26T04:16:13.458Z,25.54
2019-02-26T04:17:28.068Z,25.44
2019-02-26T04:18:45.167Z,25.44
2019-02-26T04:19:58.275Z,25.54
2019-02-26T04:21:18.248Z,25.54
2019-02-26T04:22:29.083Z,25.54
2019-02-26T04:23:48.111Z,25.44
2019-02-26T04:25:05.950Z,25.54
2019-02-26T04:26:23.401Z,25.63
2019-02-26T04:27:44.142Z,25.54
2019-02-26T04:28:53.578Z,25.44
2019-02-26T04:30:05.829Z,25.63
2019-02-26T04:31:22.005Z,25.44
2019-02-26T04:32:31.835Z,25.44
2019-02-26T04:33:50.747Z,25.44
2019-02-26T04:35:09.033Z,25.44
2019-02-26T04:36:22.386Z,25.63
2019-02-26T04:37:35.203Z,25.63
2019-02-26T04:38:48.774Z,25.34
2019-02-26T04:40:08.272Z,25.63
2019-02-26T04:41:21.656Z,25.44
2019-02-26T04:42:32.620Z,25.63
2019-02-26T04:43:48.918Z,25.44
2019-02-26T04:45:11.657Z,25.44
2019-02-26T04:46:20.979Z,25.44
2019-02-26T04:47:40.624Z,25.44
2019-02-26T04:48:59.992Z,25.63
2019-02-26T04:50:11.635Z,25.54
2019-02-26T04:51:25.867Z,25.44
2019-02-26T04:52:43.487Z,25.54
2019-02-26T04:53:58.800Z,25.44
2019-02-26T04:55:09.339Z,25.63
2019-02-26T04:56:18.696Z,25.44
2019-02-26T04:57:27.910Z,25.63
2019-02-26T04:58:42.447Z,25.63
2019-02-26T04:59:55.580Z,25.73
2019-02-26T05:01:19.009Z,25.63
2019-02-26T05:02:29.068Z,25.54
2019-02-26T05:03:38.160Z,25.63
2019-02-26T05:04:47.417Z,25.63
2019-02-26T05:06:02.706Z,25.63
2019-02-26T05:07:21.121Z,25.63
2019-02-26T05:08:35.440Z,25.54
2019-02-26T05:09:55.967Z,25.63
2019-02-26T05:11:09.218Z,25.63
2019-02-26T05:12:42.657Z,25.54
2019-02-26T05:13:51.957Z,25.54
2019-02-26T05:15:01.090Z,25.54
2019-02-26T05:16:14.426Z,25.63
2019-02-26T05:17:30.144Z,25.63
2019-02-26T05:18:43.722Z,25.54
2019-02-26T05:20:03.513Z,25.63
2019-02-26T05:21:21.787Z,25.54
2019-02-26T05:22:38.308Z,25.54
2019-02-26T05:23:52.281Z,25.63
2019-02-26T05:25:16.248Z,25.54
2019-02-26T05:26:26.991Z,25.54
2019-02-26T05:27:42.202Z,25.54
2019-02-26T05:28:55.818Z,25.54
2019-02-26T05:30:06.937Z,25.54
2019-02-26T05:31:25.221Z,25.54
2019-02-26T05:32:42.114Z,25.54
2019-02-26T05:33:57.736Z,25.54
2019-02-26T05:35:09.025Z,25.54
2019-02-26T05:36:25.158Z,25.54
2019-02-26T05:37:43.442Z,25.63
2019-02-26T05:38:57.594Z,25.63
2019-02-26T05:40:16.274Z,25.54
2019-02-26T05:41:29.178Z,25.63
2019-02-26T05:42:38.547Z,25.44
2019-02-26T05:43:55.195Z,25.63
2019-02-26T05:45:13.697Z,25.44
2019-02-26T05:46:29.550Z,25.63
2019-02-26T05:47:39.500Z,25.73
2019-02-26T05:48:59.640Z,25.44
2019-02-26T05:50:22.095Z,25.44
2019-02-26T05:51:38.254Z,25.73
2019-02-26T05:52:57.419Z,25.44
2019-02-26T05:54:21.415Z,25.44
2019-02-26T05:55:32.070Z,25.44
2019-02-26T05:56:46.760Z,25.73
2019-02-26T05:57:58.935Z,25.54
2019-02-26T05:59:15.353Z,25.73
2019-02-26T06:00:34.892Z,25.44
2019-02-26T06:01:49.937Z,25.73
2019-02-26T06:03:09.489Z,25.44
2019-02-26T06:04:24.123Z,25.44
2019-02-26T06:05:35.167Z,25.44
2019-02-26T06:06:56.193Z,25.44
2019-02-26T06:08:09.693Z,25.54
2019-02-26T06:09:25.312Z,25.54
2019-02-26T06:10:38.696Z,25.44
2019-02-26T06:11:52.175Z,25.44
2019-02-26T06:13:05.323Z,25.54
2019-02-26T06:14:20.216Z,25.63
2019-02-26T06:15:38.424Z,25.54
2019-02-26T06:16:53.056Z,25.44
2019-02-26T06:18:03.596Z,25.63
2019-02-26T06:19:15.785Z,25.63
2019-02-26T06:20:31.908Z,25.63
2019-02-26T06:21:49.143Z,25.63
2019-02-26T06:23:01.715Z,25.54
2019-02-26T06:24:10.736Z,25.63
2019-02-26T06:25:26.910Z,25.54
2019-02-26T06:26:41.167Z,25.34
2019-02-26T06:27:53.298Z,25.34
2019-02-26T06:29:13.346Z,25.44
2019-02-26T06:30:32.071Z,25.24
2019-02-26T06:31:45.104Z,25.24
2019-02-26T06:33:04.054Z,25.34
2019-02-26T06:34:23.823Z,25.34
2019-02-26T06:35:36.537Z,25.34
2019-02-26T06:36:53.233Z,25.34
2019-02-26T06:38:06.751Z,25.34
2019-02-26T06:39:24.485Z,25.34
2019-02-26T06:40:46.853Z,25.24
2019-02-26T06:41:58.872Z,25.63
2019-02-26T06:43:15.239Z,25.24
2019-02-26T06:44:24.468Z,25.63
2019-02-26T06:45:35.487Z,25.24
2019-02-26T06:46:50.493Z,25.34
2019-02-26T06:48:02.754Z,25.34
2019-02-26T06:49:22.749Z,25.63
2019-02-26T06:50:39.248Z,25.63
2019-02-26T06:51:54.285Z,25.52
2019-02-26T06:53:09.060Z,25.62
2019-02-26T06:54:27.057Z,25.63
2019-02-26T06:55:39.163Z,25.52
2019-02-26T06:56:52.821Z,25.52
2019-02-26T06:58:02.662Z,25.43
2019-02-26T06:59:14.325Z,25.62
2019-02-26T07:00:29.342Z,25.52
2019-02-26T07:01:42.040Z,25.71
2019-02-26T07:02:51.997Z,25.43
2019-02-26T07:04:04.837Z,25.43
2019-02-26T07:05:17.469Z,25.43
2019-02-26T07:06:34.862Z,25.52
2019-02-26T07:07:44.770Z,25.43
2019-02-26T07:08:56.963Z,25.52
2019-02-26T07:10:06.489Z,25.62
2019-02-26T07:11:31.216Z,25.23
2019-02-26T07:12:48.075Z,25.13
2019-02-26T07:14:00.571Z,25.44
2019-02-26T07:15:14.909Z,25.23
2019-02-26T07:16:24.512Z,25.24
2019-02-26T07:17:38.334Z,25.15
2019-02-26T07:18:51.123Z,25.05
2019-02-26T07:20:03.339Z,24.76
2019-02-26T07:21:13.015Z,24.49
2019-02-26T07:22:22.111Z,24.68
2019-02-26T07:23:37.532Z,24.39
2019-02-26T07:24:51.876Z,24.49
2019-02-26T07:26:03.151Z,24.2
2019-02-26T07:27:16.443Z,24.29
2019-02-26T07:28:28.596Z,23.92
2019-02-26T07:29:44.792Z,24.21
2019-02-26T07:31:00.371Z,24.21
2019-02-26T07:32:20.218Z,23.72
2019-02-26T07:33:36.954Z,23.54
2019-02-26T07:34:52.231Z,23.72
2019-02-26T07:36:06.498Z,23.82
2019-02-26T07:37:18.148Z,23.74
2019-02-26T07:38:29.995Z,23.55
2019-02-26T07:39:54.132Z,23.55
2019-02-26T07:41:06.271Z,23.45
2019-02-26T07:42:18.942Z,23.55
2019-02-26T07:43:29.121Z,23.35
2019-02-26T07:44:46.786Z,23.45
2019-02-26T07:45:56.321Z,23.17
2019-02-26T07:47:09.332Z,23.27
2019-02-26T07:48:25.873Z,23.46
2019-02-26T07:49:38.748Z,23.56
2019-02-26T07:50:50.780Z,23.36
2019-02-26T07:52:06.571Z,23.56
2019-02-26T07:53:22.623Z,23.46
2019-02-26T07:54:32.268Z,23.56
2019-02-26T07:55:46.927Z,23.56
2019-02-26T07:57:00.505Z,23.36
2019-02-26T07:58:15.501Z,23.17
2019-02-26T07:59:32.320Z,23.65
2019-02-26T08:00:54.099Z,23.27
2019-02-26T08:02:06.713Z,23.56
2019-02-26T08:03:24.674Z,23.46
2019-02-26T08:04:39.316Z,23.65
2019-02-26T08:05:50.620Z,23.56
2019-02-26T08:07:04.351Z,23.56
2019-02-26T08:08:18.709Z,23.56
2019-02-26T08:09:28.692Z,23.56
2019-02-26T08:10:42.745Z,23.56
2019-02-26T08:11:58.106Z,23.75
2019-02-26T08:13:13.622Z,23.94
2019-02-26T08:14:25.756Z,23.85
2019-02-26T08:15:39.388Z,23.85
2019-02-26T08:16:56.058Z,23.65
2019-02-26T08:18:11.523Z,23.65
2019-02-26T08:19:20.988Z,23.65
2019-02-26T08:20:37.562Z,23.75
2019-02-26T08:21:50.748Z,23.74
2019-02-26T08:23:04.123Z,24.22
2019-02-26T08:24:17.663Z,24.41
2019-02-26T08:25:31.950Z,23.93
2019-02-26T08:26:45.213Z,24.13
2019-02-26T08:28:01.061Z,24.13
2019-02-26T08:29:14.296Z,23.93
2019-02-26T08:30:27.995Z,23.93
2019-02-26T08:31:37.354Z,24.13
2019-02-26T08:33:01.905Z,24.22
2019-02-26T08:34:17.990Z,24.22
2019-02-26T08:35:27.827Z,24.41
2019-02-26T08:36:37.256Z,24.71
2019-02-26T08:37:51.697Z,24.13
2019-02-26T08:39:01.062Z,24.41
2019-02-26T08:40:11.993Z,24.51
2019-02-26T08:41:21.254Z,24.41
2019-02-26T08:42:30.643Z,24.41
2019-02-26T08:43:42.076Z,24.32
2019-02-26T08:45:01.730Z,24.32
2019-02-26T08:46:14.021Z,24.32
2019-02-26T08:47:26.267Z,24.71
2019-02-26T08:48:35.704Z,24.61
2019-02-26T08:49:53.632Z,24.71
2019-02-26T08:51:16.251Z,24.71
2019-02-26T08:52:31.158Z,24.61
2019-02-26T08:53:41.065Z,24.41
2019-02-26T08:54:58.056Z,24.51
2019-02-26T08:56:10.917Z,24.69
2019-02-26T08:57:21.345Z,24.51
2019-02-26T08:58:31.043Z,24.71
2019-02-26T08:59:42.174Z,24.61
2019-02-26T09:00:57.480Z,24.6
2019-02-26T09:02:06.715Z,24.5
2019-02-26T09:03:20.363Z,24.5
2019-02-26T09:04:29.279Z,24.5
2019-02-26T09:05:44.568Z,24.4
2019-02-26T09:07:02.076Z,24.41
2019-02-26T09:08:15.805Z,24.5
2019-02-26T09:09:28.144Z,24.69
2019-02-26T09:10:43.701Z,24.69
2019-02-26T09:12:01.115Z,24.6
2019-02-26T09:13:16.377Z,24.6
2019-02-26T09:14:37.416Z,24.6
2019-02-26T09:15:52.902Z,24.69
2019-02-26T09:17:08.197Z,24.79
2019-02-26T09:18:27.981Z,24.88
2019-02-26T09:19:43.248Z,24.88
2019-02-26T09:20:54.782Z,24.5
2019-02-26T09:22:03.910Z,24.98
2019-02-26T09:23:30.518Z,24.98
2019-02-26T09:24:40.032Z,24.98
2019-02-26T09:25:57.753Z,24.88
2019-02-26T09:27:11.824Z,24.98
2019-02-26T09:28:24.659Z,24.88
2019-02-26T09:29:41.935Z,24.98
2019-02-26T09:31:04.615Z,24.98
2019-02-26T09:32:20.767Z,24.98
2019-02-26T09:33:37.614Z,24.98
2019-02-26T09:34:51.918Z,24.98
2019-02-26T09:36:15.626Z,24.88
2019-02-26T09:37:31.940Z,24.88
2019-02-26T09:38:44.904Z,24.98
2019-02-26T09:40:02.664Z,24.88
2019-02-26T09:41:16.609Z,24.98
2019-02-26T09:42:32.481Z,24.98
2019-02-26T09:43:45.681Z,24.79
2019-02-26T09:44:58.133Z,24.79
2019-02-26T09:46:16.809Z,24.6
2019-02-26T09:47:31.383Z,24.88
2019-02-26T09:48:47.130Z,24.6
2019-02-26T09:49:58.762Z,24.79
2019-02-26T09:51:12.428Z,24.69
2019-02-26T09:52:30.110Z,24.79
2019-02-26T09:53:40.161Z,24.4
2019-02-26T09:54:55.245Z,24.51
2019-02-26T09:56:04.949Z,24.71
2019-02-26T09:57:20.423Z,24.71
2019-02-26T09:58:33.331Z,24.71
2019-02-26T09:59:57.314Z,24.8
2019-02-26T10:01:13.848Z,24.51
2019-02-26T10:02:28.744Z,24.61
2019-02-26T10:03:41.459Z,24.51
2019-02-26T10:04:54.403Z,24.61
2019-02-26T10:06:04.656Z,24.51
2019-02-26T10:07:18.561Z,24.71
2019-02-26T10:08:32.059Z,24.71
2019-02-26T10:09:47.971Z,24.61
2019-02-26T10:11:02.644Z,24.71
2019-02-26T10:12:17.915Z,24.61
2019-02-26T10:13:30.041Z,24.71
2019-02-26T10:14:41.000Z,24.61
2019-02-26T10:15:53.214Z,24.8
2019-02-26T10:17:16.545Z,24.51
2019-02-26T10:18:32.921Z,24.51
2019-02-26T10:19:45.351Z,24.51
2019-02-26T10:20:57.883Z,24.51
2019-02-26T10:22:15.630Z,24.61
2019-02-26T10:23:28.994Z,24.61
2019-02-26T10:24:42.967Z,24.51
2019-02-26T10:25:57.792Z,24.71
2019-02-26T10:27:16.480Z,24.61
2019-02-26T10:28:26.090Z,24.41
2019-02-26T10:29:48.030Z,24.71
2019-02-26T10:31:06.466Z,24.71
2019-02-26T10:32:16.743Z,24.51
2019-02-26T10:33:29.034Z,24.51
2019-02-26T10:34:48.520Z,24.41
2019-02-26T10:35:58.470Z,24.51
2019-02-26T10:37:12.910Z,24.41
2019-02-26T10:38:24.062Z,24.41
2019-02-26T10:39:42.128Z,24.61
2019-02-26T10:41:02.008Z,24.61
2019-02-26T10:42:12.956Z,24.8
2019-02-26T10:43:25.180Z,24.61
2019-02-26T10:44:34.871Z,24.8
2019-02-26T10:45:50.023Z,24.61
2019-02-26T10:47:06.253Z,24.8
2019-02-26T10:48:22.689Z,24.9
2019-02-26T10:49:34.945Z,24.61
2019-02-26T10:50:49.571Z,24.9
2019-02-26T10:52:01.304Z,24.9
2019-02-26T10:53:17.066Z,24.99
2019-02-26T10:54:37.402Z,24.9
2019-02-26T10:55:51.559Z,24.9
2019-02-26T10:57:06.523Z,24.99
2019-02-26T10:58:19.922Z,24.99
2019-02-26T10:59:30.046Z,24.88
2019-02-26T11:00:40.542Z,24.99
2019-02-26T11:01:58.308Z,24.88
2019-02-26T11:03:14.825Z,24.9
2019-02-26T11:04:40.969Z,25.18
2019-02-26T11:05:58.502Z,25.08
2019-02-26T11:07:14.662Z,25.08
2019-02-26T11:08:29.520Z,25.18
2019-02-26T11:09:44.585Z,25.08
2019-02-26T11:11:01.385Z,25.18
2019-02-26T11:12:27.391Z,25.08
2019-02-26T11:13:46.842Z,25.08
2019-02-26T11:15:06.713Z,24.98
2019-02-26T11:16:27.946Z,25.18
2019-02-26T11:17:47.904Z,24.98
2019-02-26T11:19:04.291Z,24.98
2019-02-26T11:20:18.775Z,25.08
2019-02-26T11:21:37.557Z,25.18
2019-02-26T11:22:49.676Z,25.18
2019-02-26T11:24:03.434Z,25.08
2019-02-26T11:25:21.328Z,25.08
2019-02-26T11:26:38.170Z,25.27
2019-02-26T11:27:51.058Z,25.08
2019-02-26T11:29:00.673Z,25.18
2019-02-26T11:30:10.338Z,25.08
2019-02-26T11:31:28.004Z,25.18
2019-02-26T11:32:42.339Z,25.08
2019-02-26T11:33:51.518Z,25.18
2019-02-26T11:35:14.364Z,25.18
2019-02-26T11:36:34.925Z,25.37
2019-02-26T11:37:52.206Z,25.18
2019-02-26T11:39:09.883Z,25.08
2019-02-26T11:40:27.995Z,25.08
2019-02-26T11:41:39.515Z,25.18
2019-02-26T11:42:53.261Z,25.18
2019-02-26T11:44:20.511Z,25.18
2019-02-26T11:45:36.962Z,25.18
2019-02-26T11:46:54.344Z,25.18
2019-02-26T11:48:08.950Z,24.88
2019-02-26T11:49:23.703Z,25.08
2019-02-26T11:50:33.820Z,25.08
2019-02-26T11:51:47.378Z,25.18
2019-02-26T11:52:57.621Z,24.98
2019-02-26T11:54:12.425Z,24.9
2019-02-26T11:55:29.835Z,24.9
2019-02-26T11:56:47.762Z,24.9
2019-02-26T11:57:59.769Z,24.61
2019-02-26T11:59:21.743Z,24.8
2019-02-26T12:00:39.832Z,24.8
2019-02-26T12:01:58.930Z,24.8
2019-02-26T12:03:11.579Z,24.8
2019-02-26T12:04:20.660Z,24.61
2019-02-26T12:05:38.310Z,24.61
2019-02-26T12:06:49.278Z,24.9
2019-02-26T12:08:03.001Z,24.71
2019-02-26T12:09:18.361Z,24.8
2019-02-26T12:10:32.322Z,24.61
2019-02-26T12:11:46.289Z,24.71
2019-02-26T12:12:59.922Z,24.8
2019-02-26T12:14:16.877Z,24.8
2019-02-26T12:15:33.355Z,24.71
2019-02-26T12:16:48.605Z,24.71
2019-02-26T12:18:00.602Z,24.61
2019-02-26T12:19:12.935Z,24.71
2019-02-26T12:20:26.311Z,24.61
2019-02-26T12:21:39.523Z,24.61
2019-02-26T12:22:55.589Z,24.61
2019-02-26T12:24:09.062Z,24.8
